Tiempo atmosférico en la estación meteorológica de Puerto De San Isidro, León (1510 m.)



Fecha
DESCASC
Temp. máxima en grados centígrados (hora)
DESCASC
Temp. mínima en grados centígrados (hora)
DESCASC
Temp. media en grados centígrados
DESCASC
Racha de viento máxima en m/sg (hora)
DESCASC
Velocidad máxima media en intervalos de 10 minutos(hora)
DESCASC
Precipitaciones diarias en mm
DESCASC
Precipitaciones de 00:00 a 06:00 en mm
DESCASC
Precipitaciones de 06:00 a 12:00 en mm
DESCASC
Precipitaciones de 12:00 a 18:00 en mm
DESCASC
Precipitaciones de 18:00 a 24:00 en mm
DESCASC
25-04-2019 4.9 (15:10) -1 (07:20) 2 16.39 (18:50) 8.06 (18:40) 0.6 0 0.2 0.2 0.2
24-04-2019 5.1 (18:30) -1.2 (05:50) 1.9 18.06 (11:10) 6.39 (07:50) 7.8 0 3.2 2.4 2.2
23-04-2019 7.2 (00:00) -1 (23:10) 3.1 15.28 (03:30) 6.67 (03:40) 13.8 8.6 2.8 1.8 0.6
22-04-2019 11.1 (16:30) -0.8 (-00:0) 5.2 11.39 (23:50) 4.72 (18:10) 0.4 0 0 0 0.4
21-04-2019 10.4 (12:30) 1.1 (00:00) 5.7 13.33 (08:00) 5 (14:50) 0 0 0 0 0
20-04-2019 13.9 (16:30) 3.3 (00:00) 8.6 14.17 (13:50) 5.83 (13:50) 0 0 0 0 0
19-04-2019 12.8 (17:20) 3.8 (00:00) 8.3 14.72 (17:20) 9.17 (17:30) 0.8 0.8 0 0 0
18-04-2019 8.3 (15:50) 3.6 (00:00) 6 15.83 (02:20) 7.5 (03:30) 21.2 15 0.8 1.2 4.2
17-04-2019 12 (17:50) 6.6 (00:00) 9.3 22.22 (21:00) 11.11 (17:20) 2.8 0 0 0 2.8
16-04-2019 11.7 (15:40) -1.6 (-00:0) 5 11.11 (11:10) 6.39 (11:10) 0 0 0 0 0
15-04-2019 12.2 (15:20) 2.7 (00:00) 7.4 21.11 (11:00) 9.17 (12:20) 15.2 0 5.2 6.2 3.8
14-04-2019 15.5 (13:40) 3.9 (00:00) 9.7 15.28 (23:30) 4.72 (09:30) 0.2 0 0 0.2 0
13-04-2019 14.7 (15:30) -1.1 (-00:0) 6.8 5.83 (20:10) 4.72 (20:10) 0 0 0 0 0
12-04-2019 11.3 (16:50) -5.2 (-00:0) 3.1 6.11 (19:10) 4.72 (19:20) 0 0 0 0 0
11-04-2019 1.6 (17:00) -2.1 (-00:0) -0.2 8.61 (13:20) 6.67 (13:10) 0.8 0 0 0 0.8
10-04-2019 1.8 (12:20) -0.9 (-00:0) 0.4 13.89 (12:30) 10 (13:00) 12.4 0.6 3 6.2 2.6
09-04-2019 7.1 (16:30) -0.2 (00:00) 3.4 10.83 (06:10) 6.67 (05:20) 2.2 0 0.4 0.6 1.2
08-04-2019 7.4 (18:30) -0.9 (-00:0) 3.3 11.39 (01:40) 7.78 (02:20) 1.8 1.8 0 0 0
07-04-2019 7.3 (16:40) -3 (-00:0) 2.2 13.61 (22:00) 7.5 (00:30) 1.6 0 0 0 1.6
06-04-2019 5.2 (15:30) -4.7 (-00:0) 0.3 14.17 (21:10) 9.44 (20:50) 2.8 0 0 2.6 0.2
05-04-2019 4.2 (12:30) -3.8 (-00:0) 0.2 11.11 (01:10) 5.83 (16:10) 4.6 2.4 1.6 0.6 0
04-04-2019 2.5 (14:10) -4.9 (-00:0) -1.2 -- (--) -- (--) 1.4 0.2 0.2 0.2 0.8
03-04-2019 0.3 (00:00) -4.4 (-00:0) -2.1 -- (--) -- (--) 1 0.2 0 0.6 0.2
02-04-2019 7.8 (15:20) -1 (-00:0) 3.4 11.39 (22:20) 7.78 (22:50) 0.4 0 0 0 0.4
01-04-2019 9.7 (15:30) -2.8 (-00:0) 3.4 9.17 (16:50) 5 (18:20) 0 0 0 0 0
31-03-2019 12.5 (16:30) -0.2 (00:00) 6.1 7.78 (14:50) 4.72 (04:30) 0 0 0 0 0
30-03-2019 11.6 (12:30) 0.9 (00:00) 6.3 8.33 (13:20) 5.56 (13:20) 0.4 0 0 0.4 0
29-03-2019 13.8 (15:10) -1.6 (-00:0) 6.1 6.94 (23:59) 4.72 (11:20) 0 0 0 0 0
28-03-2019 13 (13:20) -1.5 (-00:0) 5.8 9.72 (11:50) 5.83 (11:40) 0 0 0 0 0
27-03-2019 12.7 (12:40) 0.9 (00:00) 6.8 12.22 (00:20) 8.06 (00:10) 0 0 0 0 0

Gráficas

Temp. máximas Temp. mínimas Temp. medias Precipitaciones Rachas de viento máximas Velocidades máximas media en intervalos de 10 minutos

Datos horarios

Fecha y hora oficial Temperatura (ºC) Velocidad del viento (km/h) Dirección del viento Racha (km/h) Dirección de racha Precipitación (mm) Presión (hPa) Tendencia (hPa) Humedad (%)
2019-04-25 23:00:00 1.3 8 Este 45 Oeste 0 843.4 2.6 77
2019-04-25 22:00:00 1.3 15 Sudoeste 37 Sudoeste 0 842.3 1.9 72
2019-04-25 21:00:00 1.7 14 Sudoeste 36 Sudoeste 0 841.6 1.8 69
2019-04-25 20:00:00 2.3 15 Oeste 39 Oeste 0 840.8 2 63
2019-04-25 19:00:00 2.4 19 Oeste 59 Oeste 0.2 840.4 1.8 63
2019-04-25 18:00:00 1.9 18 Oeste 44 Sudoeste 0 839.8 1.4 76
2019-04-25 17:00:00 3.8 16 Oeste 40 Sudoeste 0 838.8 0.4 59
2019-04-25 16:00:00 4.2 16 Sudoeste 41 Noroeste 0 838.6 0.5 56
2019-04-25 15:00:00 3.9 13 Sudeste 38 Sudeste 0.2 838.4 0.9 62
2019-04-25 14:00:00 3.2 6 Sur 38 Sudeste 0 838.4 1.7 72
2019-04-25 13:00:00 2.4 9 Sur 44 Oeste 0 838.1 1.9 67
2019-04-25 12:00:00 2.4 15 Sudoeste 37 Sudoeste 0 837.5 2 67
2019-04-25 11:00:00 1.7 13 Sudoeste 35 Sudoeste 0 836.7 1.9 68
2019-04-25 10:00:00 0.4 6 Sur 30 Sudoeste 0 836.2 2.3 72
2019-04-25 09:00:00 -0.3 12 Sudeste 37 Sudeste 0 835.5 1.7 79
2019-04-25 08:00:00 -0.3 13 Oeste 27 Noroeste 0 834.8 1.3 74
2019-04-25 07:00:00 -0.6 10 Sudeste 47 Oeste 0.2 833.9 0.4 82
2019-04-25 06:00:00 -0.4 8 Oeste 38 Oeste 0 833.8 0.6 71
2019-04-25 05:00:00 -0.2 17 Sudoeste 46 Sur 0 833.5 0 70
2019-04-25 04:00:00 -0.1 9 Sudoeste 32 Sudoeste 0 833.5 0.4 68
2019-04-25 03:00:00 0.4 16 Sudoeste 40 Sudoeste 0 833.2 0.6 69
2019-04-25 02:00:00 0.6 9 Sudoeste 32 Noroeste 0 833.5 1.5 71
2019-04-25 01:00:00 0.8 6 Oeste 32 Oeste 0 833.1 0.9 74
2019-04-25 00:00:00 1.3 17 Sudoeste 40 Oeste 0 832.6 1.5 70
2019-04-24 23:00:00 2 10 Oeste 24 Noroeste 0.6 832 1.2 68
2019-04-24 22:00:00 1.1 12 Oeste 24 Norte 0.8 832.2 2 87
2019-04-24 21:00:00 2.9 21 Oeste 49 Oeste 0 831.1 1.3 74
2019-04-24 20:00:00 2.6 13 Oeste 46 Oeste 0.8 830.8 1 80
2019-04-24 19:00:00 4.5 13 Sudoeste 40 Oeste 0 830.2 0.5 65
2019-04-24 18:00:00 4.6 21 Sudoeste 64 Oeste 0 829.8 0.5 64
2019-04-24 17:00:00 3 11 Oeste 43 Sudoeste 2.2 829.8 0.7 79
2019-04-24 16:00:00 4.2 13 Sudoeste 41 Oeste 0 829.7 0.5 71
2019-04-24 15:00:00 2.1 14 Este 40 Sur 0.2 829.3 0 84
2019-04-24 14:00:00 2.6 14 Sudeste 56 Sudeste 0 829.1 -0.2 77
2019-04-24 13:00:00 0.9 17 Sudeste 50 Sudoeste 0 829.2 0.3 77
2019-04-24 12:00:00 1.5 10 Sur 65 Sudoeste 0.4 829.3 -0.2 77
2019-04-24 11:00:00 0 22 Sur 50 Sudoeste 0.6 829.3 0 86
2019-04-24 10:00:00 -0.7 17 Sur 57 Sudoeste 0.8 828.9 -0.6 87
2019-04-24 09:00:00 -0.9 20 Sur 48 Sudeste 0.6 829.5 -0.9 87
2019-04-24 08:00:00 -0.9 19 Sudeste 53 Sur 0.2 829.3 -1.5 84
2019-04-24 07:00:00 -1.2 6 Este 39 Sudeste 0.6 829.5 -1.7 87
2019-04-24 06:00:00 -0.9 21 Sur 52 Sudoeste 0 830.4 -1.2 80
2019-04-24 05:00:00 -0.7 15 Sur 37 Sudoeste 0 830.8 -1 76
2019-04-24 04:00:00 -0.5 14 Sur 37 Sudoeste 0 831.2 -0.6 76
2019-04-24 03:00:00 -0.3 10 Sudoeste 26 Oeste 0 831.6 -0.1 74
2019-04-24 02:00:00 -0.4 11 Sudoeste 31 Sudoeste 0 831.8 0.1 69
2019-04-24 01:00:00 -0.1 8 Sudoeste 18 Oeste 0 831.8 0.7 66
2019-04-24 00:00:00 -0.6 10 Nordeste 15 Este 0 831.7 1.1 90
2019-04-23 23:00:00 -0.8 3 Este 13 Sudeste 0 831.7 1.5 90
2019-04-23 22:00:00 -0.1 4 Este 11 Este 0 831.1 1.4 91
2019-04-23 21:00:00 0.9 4 Norte 18 Oeste 0 830.6 1.4 87
2019-04-23 20:00:00 0.7 11 Oeste 20 Oeste 0.6 830.2 1.3 87
2019-04-23 19:00:00 1.8 13 Oeste 23 Noroeste 0 829.7 0.9 83
2019-04-23 18:00:00 2.8 12 Oeste 27 Oeste 0.6 829.2 0.2 69
2019-04-23 17:00:00 2.2 11 Oeste 42 Sudeste 1.2 828.9 0 82
2019-04-23 16:00:00 4.8 8 Este 36 Oeste 0 828.8 0 66
2019-04-23 15:00:00 4.7 8 Sudeste 32 Sudeste 0 829 0.3 56
2019-04-23 14:00:00 4.2 15 Sur 35 Sur 0 828.9 0.6 58
2019-04-23 13:00:00 3.6 9 Sur 36 Sur 0 828.8 0.9 62
2019-04-23 12:00:00 2.5 10 Sur 38 Sur 0 828.7 1 70
2019-04-23 11:00:00 2.1 18 Sur 40 Sudeste 0 828.3 0.7 77
2019-04-23 10:00:00 2.1 17 Este 31 Este 0.4 827.9 0.4 85
2019-04-23 09:00:00 2.4 18 Este 39 Sur 0.4 827.7 0.1 86
2019-04-23 08:00:00 3.6 19 Sur 42 Sudoeste 0.4 827.6 -0.8 78
2019-04-23 07:00:00 3.5 8 Nordeste 30 Sur 1.6 827.5 -1.1 82
2019-04-23 06:00:00 3.7 15 Sur 50 Sur 0.4 827.6 -2 81
2019-04-23 05:00:00 3.6 13 Sur 43 Sur 0.2 828.4 -2 81
2019-04-23 04:00:00 3.6 20 Sur 55 Sur 1.6 828.6 -1.7 79
2019-04-23 03:00:00 3.5 19 Sur 51 Sur 3.8 829.6 -1 80
2019-04-23 02:00:00 4.6 17 Sur 40 Sur 2.2 830.4 -0.9 78
2019-04-23 01:00:00 6.1 13 Sur 42 Sur 0.4 830.3 -1 74
2019-04-23 00:00:00 7.2 12 Sur 41 Sur 0 830.6 -1.2 68
2019-04-22 23:00:00 7.4 13 Sur 37 Sur 0 831.3 -0.7 67
2019-04-22 22:00:00 6.8 16 Este 31 Este 0.2 831.3 -1.2 71
2019-04-22 21:00:00 7.3 8 Sudoeste 35 Sudoeste 0.2 831.8 -0.9 70
2019-04-22 20:00:00 8.8 12 Sur 34 Sur 0 832 -1.1 61
2019-04-22 19:00:00 9.7 14 Sur 33 Sur 0 832.5 -1.4 57
2019-04-22 18:00:00 10.1 14 Sur 31 Sur 0 832.7 -1.8 54
2019-04-22 17:00:00 10 11 Sur 31 Sur 0 833.1 -1.9 54
2019-04-22 16:00:00 10.2 13 Sur 28 Sudeste 0 833.9 -1.9 55
2019-04-22 15:00:00 9.7 13 Sur 31 Sudeste 0 834.5 -1.9 52
2019-04-22 14:00:00 10.2 11 Sur 28 Sur 0 835 -2 55
2019-04-22 13:00:00 9.3 12 Sur 35 Sudeste 0 835.8 -1.7 54
2019-04-22 12:00:00 8.2 15 Sudeste 31 Sur 0 836.4 -1.5 57
2019-04-22 11:00:00 6.7 14 Sudeste 26 Sur 0 837 -0.9 63
2019-04-22 10:00:00 5.4 12 Sur 24 Sur 0 837.5 -0.6 68
2019-04-22 09:00:00 4 14 Sur 29 Sur 0 837.9 -1 72
2019-04-22 08:00:00 3.6 10 Sudeste 19 Sudeste 0 837.9 -1.8 74
2019-04-22 07:00:00 3.1 9 Este 19 Sudeste 0 838.1 -2.5 81
2019-04-22 06:00:00 3.5 8 Este 18 Sudeste 0 838.9 -2.5 76
2019-04-22 05:00:00 3.1 9 Sudeste 19 Sudeste 0 839.7 -2.6 78
2019-04-22 04:00:00 1.3 6 Este 16 Nordeste 0 840.6 -2.3 86
2019-04-22 03:00:00 -0.5 4 Sudeste 8 Sudeste 0 841.4 -2.1 87
2019-04-22 02:00:00 0.4 2 Nordeste 10 Oeste 0 842.3 -1.8 86
2019-04-22 01:00:00 0.9 9 Oeste 13 Oeste 0 842.9 -1.4 87
2019-04-22 00:00:00 1.4 5 Oeste 10 Oeste 0 843.5 -0.8 84
2019-04-21 23:00:00 2.6 9 Oeste 14 Oeste 0 844.1 -0.4 83
2019-04-21 22:00:00 4.1 9 Noroeste 16 Noroeste 0 844.3 -0.6 76
2019-04-21 21:00:00 5.5 11 Noroeste 21 Noroeste 0 844.3 -0.9 71
2019-04-21 20:00:00 7.3 6 Norte 22 Nordeste 0 844.5 -1.4 63
2019-04-21 19:00:00 7.8 11 Norte 29 Noroeste 0 844.9 -1.8 60
2019-04-21 18:00:00 8.7 11 Norte 25 Nordeste 0 845.2 -1.9 55
2019-04-21 17:00:00 9.2 12 Norte 33 Noroeste 0 845.9 -1.8 50
2019-04-21 16:00:00 8.6 14 Noroeste 28 Noroeste 0 846.7 -1.6 56
2019-04-21 15:00:00 8.6 15 Noroeste 31 Norte 0 847.1 -1.4 57
2019-04-21 14:00:00 10.4 14 Nordeste 33 Este 0 847.7 -1.2 48
2019-04-21 13:00:00 9.8 12 Nordeste 32 Nordeste 0 848.3 -0.7 49
2019-04-21 12:00:00 9.1 14 Nordeste 37 Este 0 848.5 -0.6 54
2019-04-21 11:00:00 8.6 12 Nordeste 36 Nordeste 0 848.9 -0.4 52
2019-04-21 10:00:00 7.6 8 Noroeste 27 Este 0 849 -0.4 62
2019-04-21 09:00:00 7 6 Norte 22 Nordeste 0 849.1 -0.6 63
2019-04-21 08:00:00 5.3 16 Nordeste 48 Este 0 849.3 -1.1 71
2019-04-21 07:00:00 5.8 9 Nordeste 26 Nordeste 0 849.4 -1.2 62
2019-04-21 06:00:00 2.6 4 Noroeste 12 Oeste 0 849.7 -1.6 74
2019-04-21 05:00:00 1.8 5 Oeste 17 Sudeste 0 850.4 -1.5 77
2019-04-21 04:00:00 5.6 4 Sudeste 25 Nordeste 0 850.6 -1.7 65
2019-04-21 03:00:00 6.4 9 Norte 21 Nordeste 0 851.3 -1.4 63
2019-04-21 02:00:00 3.9 4 Noroeste 14 Noroeste 0 851.9 -1 72
2019-04-21 01:00:00 3.6 3 Noroeste 14 Norte 0 852.3 -0.5 72
2019-04-21 00:00:00 4.4 6 Oeste 15 Oeste 0 852.7 0 70
2019-04-20 23:00:00 4.8 9 Oeste 21 Noroeste 0 852.9 0.2 65
2019-04-20 22:00:00 6.5 5 Norte 20 Nordeste 0 852.8 0 62
2019-04-20 21:00:00 8.8 7 Norte 29 Este 0 852.7 -0.2 55
2019-04-20 20:00:00 9.6 15 Nordeste 36 Nordeste 0 852.7 -0.7 47
2019-04-20 19:00:00 10.9 15 Nordeste 31 Nordeste 0 852.8 -1.1 50
2019-04-20 18:00:00 12.3 15 Norte 35 Noroeste 0 852.9 -1.3 45
2019-04-20 17:00:00 13.7 11 Nordeste 37 Nordeste 0 853.4 -1.2 42
2019-04-20 16:00:00 13.8 16 Nordeste 41 Este 0 853.9 -1.1 42
2019-04-20 15:00:00 13.3 17 Nordeste 41 Nordeste 0 854.2 -1.1 40
2019-04-20 14:00:00 13.5 16 Nordeste 51 Nordeste 0 854.6 -0.6 37
2019-04-20 13:00:00 12.2 11 Noroeste 30 Nordeste 0 855 -0.2 49
2019-04-20 12:00:00 11.3 11 Norte 37 Nordeste 0 855.3 0 54
2019-04-20 11:00:00 10.6 14 Norte 31 Noroeste 0 855.2 0.3 50
2019-04-20 10:00:00 7.9 12 Noroeste 23 Noroeste 0 855.2 0.6 77
2019-04-20 09:00:00 6.2 11 Noroeste 22 Oeste 0 855.3 0.6 87
2019-04-20 08:00:00 4.7 15 Oeste 22 Oeste 0 854.9 -0.6 84
2019-04-20 07:00:00 5.3 13 Oeste 24 Oeste 0 854.6 -0.9 75
2019-04-20 06:00:00 5.9 6 Oeste 18 Oeste 0 854.7 -1.3 58
2019-04-20 05:00:00 5.2 11 Noroeste 19 Oeste 0 855.5 -0.7 67
2019-04-20 04:00:00 5.9 9 Oeste 18 Noroeste 0 855.5 -0.9 59
2019-04-20 03:00:00 5.5 10 Oeste 15 Oeste 0 856 -0.4 59
2019-04-20 02:00:00 4.5 8 Noroeste 13 Noroeste 0 856.2 0.1 67
2019-04-20 01:00:00 3.8 4 Oeste 7 Oeste 0 856.4 1 77
2019-04-20 00:00:00 5.2 7 Oeste 22 Oeste 0 856.4 1.7 92
2019-04-19 23:00:00 4.7 5 Oeste 10 Noroeste 0 856.1 2 80
2019-04-19 22:00:00 6.1 3 Oeste 15 Noroeste 0 855.4 1.9 92
2019-04-19 21:00:00 6.9 8 Oeste 18 Oeste 0 854.7 2 87
2019-04-19 20:00:00 9 15 Oeste 20 Oeste 0 854.1 2 83
2019-04-19 19:00:00 9.7 18 Oeste 29 Noroeste 0 853.5 1.3 82
2019-04-19 18:00:00 12.1 20 Sudeste 53 Este 0 852.7 1.1 47
2019-04-19 17:00:00 12.4 24 Sudeste 46 Sudeste 0 852.1 0.8 54
2019-04-19 16:00:00 11 29 Sudeste 50 Sudeste 0 852.2 1.1 60
2019-04-19 15:00:00 10.7 26 Sudeste 40 Este 0 851.6 0.9 62
2019-04-19 14:00:00 10.5 26 Este 39 Este 0 851.3 1.2 65
2019-04-19 13:00:00 9 20 Sudeste 37 Este 0 851.1 1.6 70
2019-04-19 12:00:00 7.8 21 Este 32 Sudeste 0 850.7 1.8 72
2019-04-19 11:00:00 6.5 18 Sudeste 47 Este 0 850.1 1.7 75
2019-04-19 10:00:00 5.8 26 Sudeste 37 Sudeste 0 849.5 2 75
2019-04-19 09:00:00 4.7 14 Sudeste 30 Sudeste 0 848.9 1.7 85
2019-04-19 08:00:00 4.3 8 Este 14 Este 0 848.4 1.1 87
2019-04-19 07:00:00 4.1 8 Este 12 Este 0 847.5 0.3 88
2019-04-19 06:00:00 4.2 9 Sudeste 15 Sudeste 0 847.2 -0.3 89
2019-04-19 05:00:00 4.3 9 Nordeste 21 Nordeste 0.2 847.3 -0.5 90
2019-04-19 04:00:00 4.3 7 Nordeste 24 Nordeste 0 847.2 -0.4 88
2019-04-19 03:00:00 3.9 4 Sudeste 9 Sudoeste 0 847.5 -0.4 87
2019-04-19 02:00:00 3.9 3 Sur 12 Noroeste 0.4 847.8 0 88
2019-04-19 01:00:00 4 6 Norte 15 Norte 0.2 847.6 0 88
2019-04-19 00:00:00 4 5 Oeste 14 Noroeste 0 847.9 0.7 90
2019-04-18 23:00:00 4 9 Noroeste 13 Noroeste 0 847.8 1 91
2019-04-18 22:00:00 3.7 3 Oeste 13 Nordeste 0.2 847.6 1.1 85
2019-04-18 21:00:00 4 5 Oeste 9 Oeste 0.6 847.2 1.2 85
2019-04-18 20:00:00 4.6 3 Noroeste 9 Este 1.4 846.8 1 86
2019-04-18 19:00:00 4.8 9 Este 15 Este 2 846.5 0.7 86
2019-04-18 18:00:00 5.6 5 Nordeste 17 Noroeste 0.8 846 -0.1 82
2019-04-18 17:00:00 5.6 10 Noroeste 21 Noroeste 0.4 845.8 -0.6 83
2019-04-18 16:00:00 8.3 5 Sudoeste 12 Este 0 845.8 -0.7 66
2019-04-18 15:00:00 6.6 8 Este 14 Este 0 846.1 0 76
2019-04-18 14:00:00 6.3 5 Este 15 Este 0 846.4 0.4 76
2019-04-18 13:00:00 5.8 4 Nordeste 19 Este 0 846.5 1.1 78
2019-04-18 12:00:00 4.9 13 Este 20 Este 0 846.1 0.8 88
2019-04-18 11:00:00 4.5 7 Sudeste 24 Este 0 846 1.5 88
2019-04-18 10:00:00 4.1 13 Este 19 Este 0.2 845.4 1.8 91
2019-04-18 09:00:00 3.8 10 Este 19 Este 0 845.3 1.6 91
2019-04-18 08:00:00 4.2 8 Sur 26 Sur 0 844.5 1.1 84
2019-04-18 07:00:00 4.1 12 Sudeste 30 Sur 0.6 843.6 0.3 86
2019-04-18 06:00:00 4.2 6 Sudeste 22 Sudeste 1.4 843.7 0.4 87
2019-04-18 05:00:00 4.4 19 Este 41 Sudeste 2.6 843.4 0.4 87
2019-04-18 04:00:00 4.4 19 Este 44 Sudeste 2.6 843.3 0.2 85
2019-04-18 03:00:00 5.3 9 Sur 57 Sudeste 2.6 843.3 0.4 82
2019-04-18 02:00:00 4.9 17 Este 36 Sudeste 3.8 843 0.4 86
2019-04-18 01:00:00 6 14 Sur 42 Sur 2 843.1 0.8 77
2019-04-18 00:00:00 7.4 14 Sur 58 Sudeste 1 842.9 0.8 77
2019-04-17 23:00:00 8.3 32 Este 80 Este 0.4 842.6 0.2 75
2019-04-17 22:00:00 8.7 30 Este 68 Sudeste 0.8 842.3 1 72
2019-04-17 21:00:00 8.8 32 Este 80 Este 0.4 842.1 0.6 71
2019-04-17 20:00:00 9.3 18 Sur 60 Sudeste 0.2 842.4 1.1 65
2019-04-17 19:00:00 11.2 30 Este 73 Sudeste 0 841.3 -1.3 54
2019-04-17 18:00:00 11.8 26 Este 69 Sudeste 0 841.5 -1.4 48
2019-04-17 17:00:00 11 36 Este 60 Este 0 841.3 -2 57
2019-04-17 16:00:00 10 27 Este 51 Este 0 842.6 -0.3 60
2019-04-17 15:00:00 10.4 9 Sur 57 Sur 0 842.9 0.4 59
2019-04-17 14:00:00 10.3 13 Sur 50 Sur 0 843.3 0.3 59
2019-04-17 13:00:00 10.1 20 Sudeste 72 Sudeste 0 842.9 0 60
2019-04-17 12:00:00 10.9 17 Sudeste 59 Sudoeste 0 842.5 -0.3 56
2019-04-17 11:00:00 8.8 16 Sur 53 Sudeste 0 843 0.2 60
2019-04-17 10:00:00 8.5 25 Sur 56 Sur 0 842.9 0 60
2019-04-17 09:00:00 7.2 17 Sur 55 Sur 0 842.8 -0.4 63
2019-04-17 08:00:00 6.7 15 Sudeste 59 Este 0 842.8 -0.7 66
2019-04-17 07:00:00 7.2 13 Sudoeste 52 Sudoeste 0 842.9 -1.5 57
2019-04-17 06:00:00 7.6 16 Sudeste 51 Sudeste 0 843.2 -2 54
2019-04-17 05:00:00 7.9 25 Este 54 Este 0 843.5 -2.1 53
2019-04-17 04:00:00 8.8 23 Este 45 Nordeste 0 844.4 -1.7 51
2019-04-17 03:00:00 8.6 26 Este 53 Este 0 845.2 -1.3 52
2019-04-17 02:00:00 9 28 Sudeste 52 Sudeste 0 845.6 -1.4 49
2019-04-17 01:00:00 9.2 10 Sudeste 59 Sur 0 846.1 -1 50
2019-04-17 00:00:00 9.1 17 Sudeste 39 Sudeste 0 846.5 -0.8 47
2019-04-16 23:00:00 7.6 12 Sudeste 32 Este 0 847 -0.5 49
2019-04-16 22:00:00 8.1 10 Sudeste 30 Este 0 847.1 -0.2 48
2019-04-16 21:00:00 8.5 14 Sudeste 36 Este 0 847.3 -0.5 52
2019-04-16 20:00:00 9.2 9 Sur 33 Sur 0 847.5 -0.4 45
2019-04-16 19:00:00 10.4 12 Sudeste 32 Sudeste 0 847.3 -1.1 42
2019-04-16 18:00:00 10.4 12 Sudoeste 36 Sur 0 847.8 -1 43
2019-04-16 17:00:00 10.7 8 Oeste 36 Este 0 847.9 -1.1 40
2019-04-16 16:00:00 11.2 10 Sur 35 Este 0 848.4 -0.9 39
2019-04-16 15:00:00 10.7 10 Sudoeste 29 Este 0 848.8 -0.7 43
2019-04-16 14:00:00 9.1 11 Sur 28 Sudoeste 0 849 -0.4 48
2019-04-16 13:00:00 8.4 13 Sudeste 39 Este 0 849.3 -0.3 46
2019-04-16 12:00:00 7 19 Este 40 Este 0 849.5 -0.3 65
2019-04-16 11:00:00 5.5 22 Este 33 Este 0 849.4 -0.3 68
2019-04-16 10:00:00 3.2 15 Este 28 Este 0 849.6 0.3 81
2019-04-16 09:00:00 0.8 8 Este 15 Nordeste 0 849.8 0.7 89
2019-04-16 08:00:00 -0.6 5 Sudeste 13 Este 0 849.7 0.8 90
2019-04-16 07:00:00 -1.6 0 Calma 7 Este 0 849.3 0.1 90
2019-04-16 06:00:00 -1.1 0 Calma 13 Este 0 849.1 -0.1 88
2019-04-16 05:00:00 -0.4 4 Este 7 Sudeste 0 848.9 -0.3 89
2019-04-16 04:00:00 -0.5 0 Calma 9 Este 0 849.2 0.2 89
2019-04-16 03:00:00 0.5 5 Sur 11 Sur 0 849.2 0.4 88
2019-04-16 02:00:00 1.6 4 Sur 13 Oeste 0 849.2 0.9 88
2019-04-16 01:00:00 2.7 11 Oeste 23 Oeste 0 849 1.4 87
2019-04-16 00:00:00 2.8 15 Oeste 34 Oeste 0.4 848.8 2.2 90
2019-04-15 23:00:00 3.4 13 Noroeste 23 Noroeste 0.4 848.3 2.7 91
2019-04-15 22:00:00 3.1 4 Oeste 17 Noroeste 1.6 847.6 2.9 90
2019-04-15 21:00:00 3 8 Noroeste 40 Oeste 1.4 846.6 2.4 89
2019-04-15 20:00:00 5.4 11 Norte 24 Oeste 0 845.6 2.3 91
2019-04-15 19:00:00 8.6 18 Oeste 28 Oeste 0 844.7 1.5 69
2019-04-15 18:00:00 7.4 15 Oeste 42 Oeste 0.2 844.2 0.9 68
2019-04-15 17:00:00 11.7 8 Sudoeste 27 Sur 0 843.3 0.2 53
2019-04-15 16:00:00 11.6 9 Sudoeste 40 Noroeste 0 843.2 -0.1 51
2019-04-15 15:00:00 11.5 9 Sudoeste 46 Oeste 0 843.3 -0.2 57
2019-04-15 14:00:00 9.8 12 Sudoeste 55 Sur 3 843.1 -0.3 69
2019-04-15 13:00:00 9.9 22 Sudoeste 76 Sur 3 843.3 -0.3 72
2019-04-15 12:00:00 9.8 25 Sur 60 Sudoeste 5.2 843.5 -0.9 77
2019-04-15 11:00:00 10.4 26 Sur 76 Sur 0 843.4 -1.4 73
2019-04-15 10:00:00 9.7 21 Sur 60 Sudoeste 0 843.6 -1.9 78
2019-04-15 09:00:00 9.5 12 Sudeste 55 Sudoeste 0 844.4 -1.7 75
2019-04-15 08:00:00 8.9 23 Este 39 Sudeste 0 844.8 -1.8 82
2019-04-15 07:00:00 9.4 12 Sudeste 45 Sur 0 845.5 -1.6 78
2019-04-15 06:00:00 9.5 13 Sudeste 36 Sur 0 846.1 -1.4 78
2019-04-15 05:00:00 9.9 17 Sudoeste 41 Sur 0 846.6 -1.4 73
2019-04-15 04:00:00 9.5 14 Sudeste 38 Sur 0 847.1 -1.1 76
2019-04-15 03:00:00 9.3 14 Sudeste 37 Sudeste 0 847.5 -1.1 73
2019-04-15 02:00:00 9.6 18 Sur 45 Sudeste 0 848 -1.2 71
2019-04-15 01:00:00 9.9 15 Sudeste 52 Sur 0 848.2 -0.9 70
2019-04-15 00:00:00 10.3 12 Sur 55 Sur 0 848.6 -0.4 71
2019-04-14 23:00:00 10.9 13 Sur 37 Sudoeste 0 849.2 0.3 71
2019-04-14 22:00:00 11.1 5 Sur 31 Sur 0 849.1 0.1 69
2019-04-14 21:00:00 11.8 12 Sur 30 Sur 0 849 -0.3 63
2019-04-14 20:00:00 12.2 7 Sudeste 20 Sur 0 848.9 -0.9 63
2019-04-14 19:00:00 13.4 7 Sudeste 19 Sudeste 0 849 -1.2 63
2019-04-14 18:00:00 11.9 8 Sur 23 Oeste 0.2 849.3 -1.1 67
2019-04-14 17:00:00 12 12 Sudoeste 14 Sudoeste 0 849.8 -0.5 67
2019-04-14 16:00:00 14.6 6 Sudoeste 18 Noroeste 0 850.2 -0.4 58
2019-04-14 15:00:00 13.2 15 Noroeste 23 Noroeste 0 850.4 0 66
2019-04-14 14:00:00 12.9 13 Noroeste 24 Noroeste 0 850.3 0.1 63
2019-04-14 13:00:00 12.6 10 Sudoeste 17 Noroeste 0 850.6 0.4 58
2019-04-14 12:00:00 11.5 9 Sudoeste 20 Oeste 0 850.4 0.4 65
2019-04-14 11:00:00 9.4 8 Oeste 23 Sudoeste 0 850.2 0.5 72
2019-04-14 10:00:00 7.6 15 Sudoeste 28 Oeste 0 850.2 0.4 80
2019-04-14 09:00:00 6.7 14 Oeste 21 Oeste 0 850 0.2 81
2019-04-14 08:00:00 6.1 8 Oeste 14 Noroeste 0 849.7 -0.4 82
2019-04-14 07:00:00 5.4 8 Oeste 18 Noroeste 0 849.8 -0.5 83
2019-04-14 06:00:00 4 10 Noroeste 19 Oeste 0 849.8 -0.4 86
2019-04-14 05:00:00 5.6 15 Oeste 19 Oeste 0 850.1 -0.6 80
2019-04-14 04:00:00 4.5 12 Oeste 15 Noroeste 0 850.3 -0.7 85
2019-04-14 03:00:00 5 9 Oeste 20 Oeste 0 850.2 -0.9 82
2019-04-14 02:00:00 5.6 8 Oeste 15 Oeste 0 850.7 -0.6 81
2019-04-14 01:00:00 5.7 9 Noroeste 18 Oeste 0 851 -0.1 80
2019-04-14 00:00:00 5.7 8 Oeste 12 Oeste 0 851.1 0.6 78
2019-04-13 23:00:00 5.7 9 Oeste 15 Oeste 0 851.3 0.8 79
2019-04-13 22:00:00 6.3 13 Oeste 20 Oeste 0 851.1 0.6 77
2019-04-13 21:00:00 6.6 5 Sudoeste 21 Oeste 0 850.5 0.4 79
2019-04-13 20:00:00 7.9 15 Oeste 19 Oeste 0 850.5 0.1 74
2019-04-13 19:00:00 9 10 Noroeste 19 Noroeste 0 850.5 0 68
2019-04-13 18:00:00 12.1 6 Este 14 Noroeste 0 850.1 -0.5 48
2019-04-13 17:00:00 11.5 12 Oeste 19 Sudoeste 0 850.4 -0.6 39
2019-04-13 16:00:00 14 8 Sudoeste 15 Sudoeste 0 850.5 -0.7 34
2019-04-13 15:00:00 13.8 5 Sudoeste 10 Sudoeste 0 850.6 -0.6 33
2019-04-13 14:00:00 13.6 3 Sudoeste 12 Sur 0 851 -0.1 32
2019-04-13 13:00:00 11.2 7 Sur 14 Sur 0 851.2 -0.1 41
2019-04-13 12:00:00 9.9 6 Sudeste 19 Este 0 851.2 -0.1 50
2019-04-13 11:00:00 8 13 Este 17 Este 0 851.1 0.1 52
2019-04-13 10:00:00 6.3 3 Sudeste 6 Este 0 851.3 0.5 55
2019-04-13 09:00:00 1 0 Calma 5 Noroeste 0 851.3 0.5 73
2019-04-13 08:00:00 -1.1 2 Sudoeste 6 Oeste 0 851 0.2 78
2019-04-13 07:00:00 -0.7 2 Oeste 4 Noroeste 0 850.8 -0.2 81
2019-04-13 06:00:00 -0.4 3 Oeste 7 Sudoeste 0 850.8 -0.5 76
2019-04-13 05:00:00 -0.6 4 Noroeste 9 Este 0 850.8 -0.7 76
2019-04-13 04:00:00 0.6 2 Sudeste 8 Sudeste 0 851 -0.7 73
2019-04-13 03:00:00 0.6 2 Sudeste 6 Sudoeste 0 851.3 -0.2 75
2019-04-13 02:00:00 -0.3 2 Sudoeste 7 Oeste 0 851.5 0 81
2019-04-13 01:00:00 -0.2 3 Oeste 8 Noroeste 0 851.7 0.5 78
2019-04-13 00:00:00 0.7 4 Oeste 8 Oeste 0 851.5 1 84
2019-04-12 23:00:00 1.7 5 Oeste 9 Noroeste 0 851.5 1.1 85
2019-04-12 22:00:00 3.1 4 Oeste 17 Oeste 0 851.2 1 81
2019-04-12 21:00:00 4.3 10 Oeste 17 Oeste 0 850.5 0.2 77
2019-04-12 20:00:00 7.7 13 Oeste 22 Oeste 0 850.4 -0.1 61
2019-04-12 19:00:00 8.2 15 Oeste 22 Oeste 0 850.2 -0.8 51
2019-04-12 18:00:00 9.4 12 Sudoeste 19 Oeste 0 850.3 -0.9 40
2019-04-12 17:00:00 11 8 Sudoeste 13 Sudoeste 0 850.5 -1 30
2019-04-12 16:00:00 10.7 5 Sudoeste 12 Sudoeste 0 851 -0.8 26
2019-04-12 15:00:00 10 3 Sur 9 Sudoeste 0 851.2 -0.3 28
2019-04-12 14:00:00 8.8 4 Sur 12 Sudoeste 0 851.5 0.2 31
2019-04-12 13:00:00 7.1 8 Oeste 13 Oeste 0 851.8 0.9 38
2019-04-12 12:00:00 6.3 6 Este 10 Este 0 851.5 0.5 47
2019-04-12 11:00:00 3.8 9 Este 13 Este 0 851.3 0.7 56
2019-04-12 10:00:00 1.4 9 Este 11 Este 0 850.9 0.5 62
2019-04-12 09:00:00 -2.9 6 Noroeste 8 Noroeste 0 851 0.4 76
2019-04-12 08:00:00 -4.7 4 Oeste 6 Oeste 0 850.6 -0.2 78
2019-04-12 07:00:00 -3.1 3 Oeste 10 Noroeste 0 850.4 -0.6 74
2019-04-12 06:00:00 -2.9 5 Oeste 8 Noroeste 0 850.6 -0.7 75
2019-04-12 05:00:00 -2.6 6 Noroeste 14 Oeste 0 850.8 -0.8 76
2019-04-12 04:00:00 -2.4 10 Oeste 13 Oeste 0 851 -0.8 78
2019-04-12 03:00:00 -1.2 9 Oeste 14 Oeste 0 851.3 -0.6 86
2019-04-12 02:00:00 -0.6 12 Oeste 14 Oeste 0 851.6 -0.5 93
2019-04-12 01:00:00 0.4 7 Noroeste 18 Noroeste 0 851.8 -0.2 89
2019-04-12 00:00:00 0.7 12 Noroeste 18 Noroeste 0 851.9 0.1 88
2019-04-11 23:00:00 0.7 8 Noroeste 18 Oeste 0 852.1 0.4 92
2019-04-11 22:00:00 0.9 8 Oeste 15 Noroeste 0 852 0.4 93
2019-04-11 21:00:00 0.9 9 Oeste 18 Sudoeste 0.4 851.8 0.3 93
2019-04-11 20:00:00 1 12 Noroeste 19 Oeste 0.2 851.7 0.3 92
2019-04-11 19:00:00 1.3 14 Oeste 21 Oeste 0.2 851.6 0.1 93
2019-04-11 18:00:00 1.3 8 Noroeste 18 Oeste 0 851.5 -0.1 92
2019-04-11 17:00:00 1.5 12 Oeste 27 Oeste 0 851.4 -0.1 88
2019-04-11 16:00:00 0.7 21 Oeste 28 Oeste 0 851.5 0.1 89
2019-04-11 15:00:00 1.3 18 Oeste 24 Oeste 0 851.6 0.4 86
2019-04-11 14:00:00 1.3 17 Oeste 31 Oeste 0 851.5 0.5 85
2019-04-11 13:00:00 0.7 22 Oeste 28 Oeste 0 851.4 0.9 87
2019-04-11 12:00:00 0.7 16 Oeste 30 Oeste 0 851.2 0.9 86
2019-04-11 11:00:00 0.2 13 Oeste 26 Oeste 0 851 0.9 89
2019-04-11 10:00:00 0.1 16 Noroeste 30 Oeste 0 850.5 0.4 87
2019-04-11 09:00:00 -0.3 15 Noroeste 30 Oeste 0 850.3 -0.1 89
2019-04-11 08:00:00 -0.7 15 Noroeste 27 Oeste 0 850.1 -0.2 91
2019-04-11 07:00:00 -0.8 13 Oeste 24 Oeste 0 850.1 -0.3 90
2019-04-11 06:00:00 -2 10 Oeste 19 Oeste 0 850.4 -0.1 91
2019-04-11 05:00:00 -1.1 13 Oeste 19 Oeste 0 850.3 -0.3 86
2019-04-11 04:00:00 -1.9 10 Oeste 18 Oeste 0 850.4 -0.2 86
2019-04-11 03:00:00 -1 11 Oeste 24 Oeste 0 850.5 0.1 82
2019-04-11 02:00:00 -0.1 14 Noroeste 24 Noroeste 0 850.6 0.3 88
2019-04-11 01:00:00 0.3 10 Noroeste 27 Norte 0 850.6 0.7 89
2019-04-11 00:00:00 0.4 11 Noroeste 30 Noroeste 0.8 850.4 1.3 90
2019-04-10 23:00:00 0.6 17 Noroeste 33 Noroeste 0 850.3 1.7 86
2019-04-10 22:00:00 0.5 11 Norte 34 Noroeste 0.4 849.9 1.5 89
2019-04-10 21:00:00 1 15 Noroeste 40 Norte 0 849.1 1.1 83
2019-04-10 20:00:00 0.8 16 Noroeste 40 Noroeste 0.6 848.6 1.1 89
2019-04-10 19:00:00 0.6 13 Noroeste 44 Noroeste 0.8 848.4 1.2 91
2019-04-10 18:00:00 1.2 16 Noroeste 38 Noroeste 1.2 848 1.5 88
2019-04-10 17:00:00 1.2 15 Noroeste 31 Noroeste 2.4 847.5 1.5 91
2019-04-10 16:00:00 1 14 Noroeste 41 Oeste 1.8 847.2 1.6 90
2019-04-10 15:00:00 1.4 28 Oeste 41 Oeste 0.6 846.5 1.3 88
2019-04-10 14:00:00 1.6 19 Noroeste 42 Oeste 0.2 846 1.4 87
2019-04-10 13:00:00 1.1 36 Oeste 50 Oeste 0 845.6 1.6 88
2019-04-10 12:00:00 1.1 28 Oeste 45 Oeste 0.4 845.2 1.4 87
2019-04-10 11:00:00 0.5 28 Oeste 39 Oeste 1.2 844.6 1.2 90
2019-04-10 10:00:00 0.1 13 Oeste 31 Oeste 0.4 844 1 92
2019-04-10 09:00:00 -0.1 18 Oeste 29 Oeste 0.4 843.8 0.7 92
2019-04-10 08:00:00 -0.4 17 Oeste 23 Oeste 0.4 843.4 0.2 92
2019-04-10 07:00:00 -0.2 14 Oeste 22 Oeste 0.2 843 -0.2 90
2019-04-10 06:00:00 -0.6 3 Sur 13 Este 0.2 843.1 -0.1 91
2019-04-10 05:00:00 -0.5 9 Oeste 21 Oeste 0.4 843.2 -0.2 91
2019-04-10 04:00:00 0 9 Oeste 19 Oeste 0 843.2 0 86
2019-04-10 03:00:00 0.4 10 Oeste 19 Noroeste 0 843.2 0.1 86
2019-04-10 02:00:00 0.1 13 Oeste 27 Oeste 0 843.4 0.4 88
2019-04-10 01:00:00 0.7 21 Oeste 40 Oeste 0 843.2 0.5 87
2019-04-10 00:00:00 0.6 9 Noroeste 28 Oeste 0.4 843.1 0.9 91
2019-04-09 23:00:00 0.7 4 Oeste 18 Oeste 0.8 843 1.1 90
2019-04-09 22:00:00 1.6 6 Noroeste 18 Oeste 0 842.7 0.9 86
2019-04-09 21:00:00 2.7 12 Oeste 18 Oeste 0 842.2 0.6 78
2019-04-09 20:00:00 3.7 14 Oeste 21 Oeste 0 841.9 0.3 64
2019-04-09 19:00:00 4.3 11 Oeste 31 Oeste 0 841.8 -0.3 60
2019-04-09 18:00:00 5.2 15 Oeste 31 Oeste 0 841.6 -0.3 53
2019-04-09 17:00:00 5.2 15 Oeste 30 Oeste 0 841.6 -0.2 52
2019-04-09 16:00:00 3.8 11 Oeste 19 Oeste 0.6 842.1 0.4 74
2019-04-09 15:00:00 3.2 13 Oeste 30 Noroeste 0 841.9 0.2 70
2019-04-09 14:00:00 6 3 Oeste 12 Este 0 841.8 0.1 66
2019-04-09 13:00:00 3.1 11 Este 20 Este 0 841.7 0.4 79
2019-04-09 12:00:00 1.9 13 Este 20 Este 0.2 841.7 0.5 86
2019-04-09 11:00:00 0.5 10 Este 26 Este 0.2 841.7 0.7 90
2019-04-09 10:00:00 0.4 15 Este 26 Este 0 841.3 0.2 91
2019-04-09 09:00:00 0 16 Este 26 Este 0 841.2 0.1 91
2019-04-09 08:00:00 0.1 12 Este 24 Sudeste 0 841 -0.4 89
2019-04-09 07:00:00 0 15 Este 39 Este 0 841.1 -0.6 90
2019-04-09 06:00:00 -0.1 22 Este 33 Este 0 841.1 -0.8 89
2019-04-09 05:00:00 -0.1 23 Este 35 Este 0 841.4 -0.6 89
2019-04-09 04:00:00 1.4 8 Sur 27 Sur 0 841.7 -0.7 72
2019-04-09 03:00:00 0.9 11 Sudeste 31 Sur 0 841.9 -0.7 75
2019-04-09 02:00:00 1.5 12 Sudeste 28 Sudoeste 0 842 -0.6 68
2019-04-09 01:00:00 1.9 13 Sudoeste 36 Sudoeste 0 842.4 -0.2 61
2019-04-09 00:00:00 2.4 14 Sudoeste 33 Sudoeste 0 842.6 0.2 60
2019-04-08 23:00:00 2.6 14 Sudoeste 24 Oeste 0 842.6 0.5 60
2019-04-08 22:00:00 3.1 9 Sudoeste 14 Sudoeste 0 842.6 0.2 60
2019-04-08 21:00:00 3.9 9 Sudoeste 27 Oeste 0 842.4 -0.1 55
2019-04-08 20:00:00 6.1 10 Sudoeste 18 Sudoeste 0 842.1 -0.7 41
2019-04-08 19:00:00 6.1 10 Oeste 24 Sudoeste 0 842.4 -0.8 44
2019-04-08 18:00:00 6.4 8 Sudoeste 26 Sudoeste 0 842.5 -1 47
2019-04-08 17:00:00 5.6 12 Oeste 38 Sudoeste 0 842.8 -0.6 44
2019-04-08 16:00:00 5.4 15 Oeste 30 Oeste 0 843.2 -0.1 51
2019-04-08 15:00:00 5.3 15 Sudoeste 24 Sudoeste 0 843.5 0.4 57
2019-04-08 14:00:00 5.5 12 Oeste 20 Oeste 0 843.4 0.7 60
2019-04-08 13:00:00 6.3 12 Sudoeste 21 Sudoeste 0 843.3 0.9 63
2019-04-08 12:00:00 3.8 6 Sudoeste 24 Este 0 843.1 0.8 88
2019-04-08 11:00:00 3 7 Este 12 Este 0 842.7 1 94
2019-04-08 10:00:00 1.5 5 Este 12 Sur 0 842.4 1 94
2019-04-08 09:00:00 0 8 Sudeste 13 Sur 0 842.3 1.2 95
2019-04-08 08:00:00 -0.1 4 Sudeste 10 Sudeste 0 841.7 0.3 95
2019-04-08 07:00:00 0.3 3 Sudeste 14 Nordeste 0 841.4 0.4 94
2019-04-08 06:00:00 0.5 7 Sudeste 14 Este 0 841.1 0.2 94
2019-04-08 05:00:00 0.4 11 Este 27 Este 0 841.4 0.2 94
2019-04-08 04:00:00 0.2 19 Este 31 Sudeste 0.2 841 -0.8 94
2019-04-08 03:00:00 -0.1 22 Este 40 Este 0.4 840.9 -1.1 94
2019-04-08 02:00:00 -0.7 27 Este 41 Nordeste 0.4 841.2 -0.8 94
2019-04-08 01:00:00 -0.8 22 Este 32 Este 0.8 841.8 -0.3 94
2019-04-08 00:00:00 -0.7 21 Este 31 Este 0.4 842 0.5 94
2019-04-07 23:00:00 -0.5 20 Este 38 Este 0.2 842 0.6 93
2019-04-07 22:00:00 0.1 26 Este 49 Sudeste 0 842.1 0.9 90
2019-04-07 21:00:00 1 10 Sur 29 Sur 0.4 841.5 0.6 80
2019-04-07 20:00:00 0.9 11 Este 24 Sudeste 0.6 841.4 0.6 86
2019-04-07 19:00:00 2.5 12 Sudeste 33 Sur 0 841.2 0.2 73
2019-04-07 18:00:00 4.3 17 Sur 33 Sur 0 840.9 0.1 49
2019-04-07 17:00:00 5.3 11 Sur 28 Sur 0 840.8 -0.1 42
2019-04-07 16:00:00 5.3 12 Sudoeste 30 Sudoeste 0 841 0.2 41
2019-04-07 15:00:00 5.3 15 Sur 26 Sur 0 840.8 0.3 35
2019-04-07 14:00:00 4.8 9 Sudeste 19 Sudeste 0 840.9 0.8 38
2019-04-07 13:00:00 4.1 13 Este 25 Sudeste 0 840.8 1 52
2019-04-07 12:00:00 4 10 Este 17 Este 0 840.5 1.3 43
2019-04-07 11:00:00 1.3 13 Oeste 20 Oeste 0 840.1 1.6 40
2019-04-07 10:00:00 -0.1 9 Noroeste 18 Sudoeste 0 839.8 2.3 59
2019-04-07 09:00:00 -2 9 Oeste 20 Oeste 0 839.2 2.5 80
2019-04-07 08:00:00 -2.1 10 Oeste 29 Oeste 0 838.5 2.2 83
2019-04-07 07:00:00 -2.2 19 Oeste 33 Oeste 0 837.5 1.4 85
2019-04-07 06:00:00 -2 26 Oeste 38 Oeste 0 836.7 0.9 87
2019-04-07 05:00:00 -2 20 Oeste 26 Oeste 0 836.3 0.8 87
2019-04-07 04:00:00 -2.1 18 Oeste 26 Oeste 0 836.1 0.8 89
2019-04-07 03:00:00 -2.1 18 Oeste 28 Oeste 0 835.8 0.9 88
2019-04-07 02:00:00 -2.6 17 Oeste 25 Oeste 0 835.5 1 88
2019-04-07 01:00:00 -2.4 21 Oeste 37 Oeste 0 835.3 1.2 88
2019-04-07 00:00:00 -2.8 31 Oeste 50 Noroeste 0 834.9 1.7 90
2019-04-06 23:00:00 -1.9 22 Oeste 42 Noroeste 0.2 834.5 1.6 93
2019-04-06 22:00:00 -1.6 26 Oeste 51 Oeste 0 834.1 2 93
2019-04-06 21:00:00 -1.3 32 Oeste 50 Oeste 0 833.2 1.7 93
2019-04-06 20:00:00 -1 33 Oeste 49 Oeste 0 832.9 1.9 92
2019-04-06 19:00:00 -0.5 27 Oeste 44 Noroeste 0 832.1 1.5 89
2019-04-06 18:00:00 0.1 30 Noroeste 43 Noroeste 0.2 831.5 1 84
2019-04-06 17:00:00 1.9 12 Oeste 50 Noroeste 2.4 831 0.4 90
2019-04-06 16:00:00 2.7 10 Sur 21 Sur 0 830.6 0.2 60
2019-04-06 15:00:00 4.1 11 Sur 18 Sudeste 0 830.5 0 53
2019-04-06 14:00:00 2.7 9 Este 23 Sudeste 0 830.6 0.9 65
2019-04-06 13:00:00 0.9 14 Sur 32 Sur 0 830.4 0.4 67
2019-04-06 12:00:00 1.4 10 Sudeste 39 Sur 0 830.5 0.9 65
2019-04-06 11:00:00 0.2 18 Sur 50 Sur 0 829.7 0.2 67
2019-04-06 10:00:00 -1.3 18 Sur 35 Sur 0 830 0.4 78
2019-04-06 09:00:00 -1.1 19 Sudoeste 41 Sudeste 0 829.6 -0.5 75
2019-04-06 08:00:00 -1.8 17 Sudeste 44 Sudoeste 0 829.5 -1.1 78
2019-04-06 07:00:00 -1.2 23 Sudoeste 51 Sudoeste 0 829.6 -1.1 74
2019-04-06 06:00:00 -1.2 15 Sudoeste 35 Oeste 0 830.1 -1 73
2019-04-06 05:00:00 -3 8 Sudoeste 26 Este 0 830.6 -0.8 83
2019-04-06 04:00:00 -4.2 9 Este 19 Nordeste 0 830.7 -0.9 89
2019-04-06 03:00:00 -4.2 4 Noroeste 12 Este 0 831.1 -0.5 91
2019-04-06 02:00:00 -3.9 5 Este 10 Sudeste 0 831.4 -0.1 91
2019-04-06 01:00:00 -4.6 3 Este 7 Sudeste 0 831.6 0.6 87
2019-04-06 00:00:00 -3.7 2 Oeste 7 Oeste 0 831.6 1.1 81
2019-04-05 23:00:00 -3.4 4 Noroeste 9 Sudoeste 0 831.5 1.1 76
2019-04-05 22:00:00 -1.3 9 Oeste 16 Oeste 0 831 1 87
2019-04-05 21:00:00 -0.6 7 Oeste 20 Oeste 0 830.5 0.9 76
2019-04-05 20:00:00 1 11 Oeste 24 Sudoeste 0 830.4 0.7 61
2019-04-05 19:00:00 1.6 12 Sudoeste 26 Oeste 0 830 0.4 55
2019-04-05 18:00:00 1.5 18 Oeste 35 Oeste 0 829.6 0 49
2019-04-05 17:00:00 3.1 15 Sudoeste 35 Oeste 0 829.7 0 44
2019-04-05 16:00:00 2.5 17 Sudoeste 28 Sudoeste 0 829.6 -0.2 46
2019-04-05 15:00:00 2.3 14 Sudoeste 32 Sur 0 829.6 0 50
2019-04-05 14:00:00 1.7 14 Sur 26 Sudoeste 0 829.7 0.6 55
2019-04-05 13:00:00 1.4 15 Sur 29 Sur 0.6 829.8 1.6 54
2019-04-05 12:00:00 3.3 9 Sudoeste 28 Oeste 0.2 829.6 1.3 51
2019-04-05 11:00:00 0.3 18 Oeste 33 Oeste 0 829.1 1.1 56
2019-04-05 10:00:00 0.8 9 Sudoeste 26 Oeste 0 828.2 0.3 60
2019-04-05 09:00:00 -1.1 19 Oeste 34 Oeste 0.6 828.3 0.5 73
2019-04-05 08:00:00 -1.3 3 Sudoeste 21 Sur 0.6 828 0 92
2019-04-05 07:00:00 -0.8 8 Sudeste 16 Sur 0.2 827.9 -0.6 87
2019-04-05 06:00:00 -1.3 7 Este 20 Este 0.2 827.8 -1 91
2019-04-05 05:00:00 -1.6 13 Este 26 Sur 0.2 828 -1.3 90
2019-04-05 04:00:00 -1.3 10 Sudeste 35 Sur 0.8 828.5 -1.1 87
2019-04-05 03:00:00 -1.2 10 Sudeste 36 Sudeste 0.4 828.8 -1.5 89
2019-04-05 02:00:00 -1.3 12 Este 40 Sur 0.6 829.3 -1.3 90
2019-04-05 01:00:00 -1 9 Sudeste 20 Sudeste 0.2 829.6 -1.1 85
2019-04-05 00:00:00 -0.6 12 Sur 40 Sur 0.2 830.3 -0.6 81
2019-04-04 23:00:00 -0.5 19 Sur 41 Sur 0 830.6 -0.8 79
2019-04-04 22:00:00 -0.2 14 Sur 41 Sur 0 830.7 -1.2 79
2019-04-04 21:00:00 -0.2 9 Sudeste 34 Sudeste 0.4 830.9 -1.5 82
2019-04-04 20:00:00 -0.5 5 Nordeste 27 Sur 0.2 831.4 -1 84
2019-04-04 19:00:00 -0.2 8 Este 32 Sur 0 831.9 -0.9 78
2019-04-04 18:00:00 0.3 10 Sur 34 Sur 0.2 832.4 -0.6 72
2019-04-04 17:00:00 0.6 17 Sudoeste 46 Sudoeste 0 832.4 -1.2 67
2019-04-04 16:00:00 1.5 14 Sur 36 Sudeste 0 832.8 -1.4 62
2019-04-04 15:00:00 1.9 17 Sur 32 Sur 0 833 -1.7 59
2019-04-04 14:00:00 2.1 14 Sur 31 Sur 0 833.6 -1.2 58
2019-04-04 13:00:00 1.2 18 Sur 30 Sur 0 834.2 -0.6 61
2019-04-04 12:00:00 0.4 13 Sudeste 25 Sudeste 0.2 834.7 0.1 68
2019-04-04 11:00:00 0.7 4 Este 18 Oeste 0 834.8 0.4 76
2019-04-04 10:00:00 -2.7 14 Oeste 30 Oeste 0 834.8 0.3 82
2019-04-04 09:00:00 -4.8 18 Oeste 39 Oeste 0 834.6 -0.4 87
2019-04-04 08:00:00 -4.5 29 Oeste 53 Oeste 0 834.4 -0.7 88
2019-04-04 07:00:00 -4.2 33 Oeste 55 Oeste 0 834.5 -1.1 88
2019-04-04 06:00:00 -4.3 25 Oeste 50 Oeste 0 835 -1.4 92
2019-04-04 05:00:00 -4.1 30 Oeste 55 Oeste 0 835.1 -1.7 91
2019-04-04 04:00:00 -4.7 25 Oeste -- -- 0 835.6 -1.8 92
2019-04-04 03:00:00 -4.7 -- -- -- -- 0.2 836.4 -1.3 92
2019-04-04 02:00:00 -4.4 28 Oeste 43 Oeste 0 836.8 -1 91
2019-04-04 01:00:00 -4.5 25 Oeste 69 Sudoeste 0 837.4 -0.6 90
2019-04-04 00:00:00 -4.4 36 Oeste 94 Oeste 0.2 837.7 -0.1 91
2019-04-03 23:00:00 -4.2 -- -- -- -- 0 837.8 -0.1 92
2019-04-03 22:00:00 -4.1 35 Oeste -- -- 0 838 0.1 91
2019-04-03 21:00:00 -4.4 -- -- -- -- 0 837.8 0 92
2019-04-03 20:00:00 -3.7 -- -- -- -- 0 837.9 -0.4 90
2019-04-03 19:00:00 -3.5 45 Oeste 78 Oeste 0 837.9 -0.9 89
2019-04-03 18:00:00 -3.5 37 Oeste 64 Oeste 0.2 837.8 -1.4 91
2019-04-03 17:00:00 -2.9 28 Oeste 64 Oeste 0.2 838.3 -1 86
2019-04-03 16:00:00 -3.5 26 Oeste 75 Noroeste 0 838.8 -0.8 90
2019-04-03 15:00:00 -3.3 40 Oeste -- -- 0.2 839.2 -0.5 89
2019-04-03 14:00:00 -2.8 30 Oeste 60 Oeste 0 839.3 -0.6 91
2019-04-03 13:00:00 -2.9 43 Oeste 73 Oeste 0 839.6 -0.1 88
2019-04-03 12:00:00 -2.9 40 Oeste 61 Oeste 0 839.7 -0.5 92
2019-04-03 11:00:00 -2.8 35 Oeste 62 Oeste 0 839.9 -0.2 92
2019-04-03 10:00:00 -2.7 32 Oeste 71 Noroeste 0 839.7 -0.8 93
2019-04-03 09:00:00 -2.8 37 Oeste 68 Oeste 0 840.2 -1.1 91
2019-04-03 08:00:00 -2.4 41 Oeste 64 Oeste 0 840.1 -1.9 92
2019-04-03 07:00:00 -2 38 Oeste 67 Oeste 0 840.5 -2.2 93
2019-04-03 06:00:00 -1.8 25 Oeste 50 Oeste 0 841.3 -1.9 94
2019-04-03 05:00:00 -1.8 30 Oeste 51 Oeste 0 842 -2.1 93
2019-04-03 04:00:00 -1.2 30 Oeste 53 Oeste 0.2 842.7 -2 93
2019-04-03 03:00:00 -0.7 28 Oeste 48 Oeste 0 843.2 -2.2 94
2019-04-03 02:00:00 -0.5 32 Oeste 46 Oeste 0 844.1 -1.6 94
2019-04-03 01:00:00 -0.1 27 Oeste 41 Oeste 0 844.7 -1.1 94
2019-04-03 00:00:00 0.3 15 Noroeste 30 Oeste 0.2 845.4 -0.3 94
2019-04-02 23:00:00 0.4 23 Oeste 41 Oeste 0 845.7 -0.5 94
2019-04-02 22:00:00 0.6 24 Oeste 39 Oeste 0 845.8 -0.2 94
2019-04-02 21:00:00 1.2 21 Oeste 29 Noroeste 0 845.7 -0.7 93
2019-04-02 20:00:00 1.9 20 Noroeste 28 Noroeste 0.2 846.2 -0.2 93
2019-04-02 19:00:00 2.5 19 Oeste 32 Oeste 0 846 -0.6 92
2019-04-02 18:00:00 4.2 21 Oeste 40 Oeste 0 846.4 -1 80
2019-04-02 17:00:00 6.3 28 Oeste 37 Oeste 0 846.4 -1.2 69
2019-04-02 16:00:00 7.2 24 Oeste 34 Oeste 0 846.6 -1.4 55
2019-04-02 15:00:00 7.3 21 Oeste 30 Oeste 0 847.4 -0.9 43
2019-04-02 14:00:00 6.7 22 Oeste 28 Oeste 0 847.6 -0.7 57
2019-04-02 13:00:00 5.9 15 Oeste 24 Oeste 0 848 0.1 66
2019-04-02 12:00:00 3.8 20 Oeste 29 Oeste 0 848.3 0.4 77
2019-04-02 11:00:00 2.8 20 Oeste 29 Oeste 0 848.3 0.7 82
2019-04-02 10:00:00 2.5 17 Oeste 24 Oeste 0 847.9 0.4 78
2019-04-02 09:00:00 1.4 12 Oeste 17 Oeste 0 847.9 0.2 78
2019-04-02 08:00:00 0.3 8 Noroeste 13 Noroeste 0 847.6 -0.2 75
2019-04-02 07:00:00 -0.8 8 Noroeste 13 Noroeste 0 847.5 -0.5 77
2019-04-02 06:00:00 -0.9 9 Oeste 17 Oeste 0 847.7 -0.5 77
2019-04-02 05:00:00 0 6 Noroeste 11 Noroeste 0 847.8 -0.6 67
2019-04-02 04:00:00 0.5 5 Oeste 10 Noroeste 0 848 -0.5 74
2019-04-02 03:00:00 1.1 5 Oeste 10 Oeste 0 848.2 -0.3 71
2019-04-02 02:00:00 1.2 5 Oeste 12 Noroeste 0 848.4 0.1 72
2019-04-02 01:00:00 1.3 8 Noroeste 12 Noroeste 0 848.5 0.6 77
2019-04-02 00:00:00 1.4 0 Calma 13 Noroeste 0 848.5 1.2 80
2019-04-01 23:00:00 1.4 8 Noroeste 12 Oeste 0 848.3 1.5 79
2019-04-01 22:00:00 2.6 8 Noroeste 19 Noroeste 0 847.9 1.3 75
2019-04-01 21:00:00 4.9 10 Norte 19 Norte 0 847.3 0.9 65
2019-04-01 20:00:00 6.4 11 Noroeste 26 Noroeste 0 846.8 0.5 60
2019-04-01 19:00:00 7.2 15 Noroeste 32 Oeste 0 846.6 0.2 57
2019-04-01 18:00:00 8.3 15 Noroeste 28 Norte 0 846.4 -0.1 52
2019-04-01 17:00:00 9.3 15 Noroeste 33 Noroeste 0 846.3 -0.5 43
2019-04-01 16:00:00 8.9 16 Noroeste 32 Oeste 0 846.4 -0.4 44
2019-04-01 15:00:00 9.1 11 Noroeste 23 Noroeste 0 846.5 -0.2 37
2019-04-01 14:00:00 9.1 10 Norte 26 Noroeste 0 846.8 0.3 35
2019-04-01 13:00:00 7.6 15 Noroeste 25 Noroeste 0 846.8 0.7 37
2019-04-01 12:00:00 7 12 Noroeste 21 Noroeste 0 846.7 0.7 37
2019-04-01 11:00:00 6.2 9 Noroeste 19 Norte 0 846.5 0.7 50
2019-04-01 10:00:00 3.9 0 Calma 4 Oeste 0 846.1 0.3 73
2019-04-01 09:00:00 -0.8 3 Oeste 8 Oeste 0 846 0.3 85
2019-04-01 08:00:00 -2.5 6 Oeste 7 Noroeste 0 845.8 0 88
2019-04-01 07:00:00 -2.8 0 Calma 4 Noroeste 0 845.8 -0.3 83
2019-04-01 06:00:00 -2 3 Noroeste 7 Oeste 0 845.7 -0.6 80
2019-04-01 05:00:00 -1.1 6 Oeste 8 Oeste 0 845.8 -0.6 78
2019-04-01 04:00:00 0 2 Norte 10 Sudeste 0 846.1 -0.5 75
2019-04-01 03:00:00 1.3 3 Noroeste 12 Noroeste 0 846.3 -0.5 65
2019-04-01 02:00:00 1.8 7 Oeste 11 Oeste 0 846.4 -0.5 60
2019-04-01 01:00:00 2.3 5 Oeste 9 Oeste 0 846.6 -0.1 71
2019-04-01 00:00:00 3 3 Oeste 7 Oeste 0 846.8 0.3 77
2019-03-31 23:00:00 3.3 4 Noroeste 6 Sur 0 846.9 0.6 77
2019-03-31 22:00:00 3.9 6 Oeste 8 Oeste 0 846.7 0.4 75
2019-03-31 21:00:00 4.8 3 Sudeste 17 Noroeste 0 846.5 0.5 66
2019-03-31 20:00:00 5.6 14 Noroeste 27 Nordeste 0 846.3 0.2 65
2019-03-31 19:00:00 7.2 10 Oeste 22 Oeste 0 846.3 0 64
2019-03-31 18:00:00 8.1 12 Oeste 23 Oeste 0 846 -0.7 59
2019-03-31 17:00:00 9.3 13 Nordeste 25 Norte 0 846.1 -1 48
2019-03-31 16:00:00 10.6 7 Sur 28 Sudoeste 0 846.3 -1.1 36
2019-03-31 15:00:00 9 12 Sur 28 Sudeste 0 846.7 -0.9 38
2019-03-31 14:00:00 8.8 11 Noroeste 24 Noroeste 0 847.1 -0.4 41
2019-03-31 13:00:00 11.1 5 Sudeste 19 Sudeste 0 847.4 -0.1 31
2019-03-31 12:00:00 10.9 6 Sur 19 Este 0 847.6 0.1 32
2019-03-31 11:00:00 9.2 12 Este 18 Este 0 847.5 0 36
2019-03-31 10:00:00 5.8 3 Sudeste 6 Sudeste 0 847.5 -0.2 53
2019-03-31 09:00:00 1.1 2 Oeste 5 Oeste 0 847.5 -0.4 67
2019-03-31 08:00:00 0.2 2 Sudeste 8 Sudeste 0 847.5 -0.9 70
2019-03-31 07:00:00 0.6 4 Sudeste 8 Sudeste 0 847.7 -1.2 73
2019-03-31 06:00:00 1.3 2 Sudeste 8 Este 0 847.9 -1.4 72
2019-03-31 05:00:00 4.1 6 Este 24 Sudeste 0 848.4 -1.2 62
2019-03-31 03:00:00 2.7 2 Noroeste 6 Sur 0 849.3 -0.8 77
2019-03-31 01:00:00 3.3 2 Sudoeste 6 Sudeste 0 849.6 -0.8 76
2019-03-31 00:00:00 3.3 0 Calma 7 Sur 0 849.9 -0.3 77
2019-03-30 23:00:00 2.9 2 Oeste 10 Sur 0 850.1 0.2 80
2019-03-30 22:00:00 2.7 3 Oeste 10 Oeste 0 850.4 0.7 82
2019-03-30 21:00:00 3.8 5 Oeste 21 Oeste 0 850.2 0.6 81
2019-03-30 20:00:00 3.9 13 Oeste 19 Oeste 0 849.9 0.2 75
2019-03-30 19:00:00 5.6 3 Sur 14 Oeste 0 849.7 -0.3 66
2019-03-30 18:00:00 6.4 13 Oeste 30 Oeste 0 849.6 -0.6 63
2019-03-30 17:00:00 7.4 6 Oeste 16 Este 0 849.7 -0.9 57
2019-03-30 16:00:00 7.2 8 Este 20 Sudeste 0.2 850 -0.7 60
2019-03-30 15:00:00 7.8 6 Este 28 Noroeste 0 850.2 -0.9 57
2019-03-30 14:00:00 7.7 10 Oeste 30 Oeste 0.2 850.6 -0.7 56
2019-03-30 13:00:00 9.7 8 Sudeste 21 Este 0 850.7 -0.6 39
2019-03-30 12:00:00 10.7 10 Este 23 Este 0 851.1 -0.3 37
2019-03-30 11:00:00 8.9 10 Este 17 Este 0 851.3 0.1 40
2019-03-30 10:00:00 7.8 12 Este 17 Este 0 851.3 0.3 41
2019-03-30 09:00:00 5.5 6 Este 9 Este 0 851.4 0.2 48
2019-03-30 08:00:00 3.5 4 Este 8 Sur 0 851.2 0.1 54
2019-03-30 07:00:00 2.9 6 Sur 10 Sur 0 851 -0.3 53
2019-03-30 06:00:00 3.1 6 Este 20 Este 0 851.2 -0.1 53
2019-03-30 05:00:00 1.3 4 Norte 12 Este 0 851.1 -0.4 60
2019-03-30 04:00:00 2.5 3 Sudoeste 13 Nordeste 0 851.3 -0.4 56
2019-03-30 03:00:00 4.7 6 Sudeste 21 Sudeste 0 851.3 -0.8 48
2019-03-30 02:00:00 3.2 5 Este 10 Este 0 851.5 -0.9 55
2019-03-30 01:00:00 3.9 6 Este 22 Sur 0 851.7 -0.8 53
2019-03-30 00:00:00 7.3 10 Sur 25 Sur 0 852.1 -0.3 40
2019-03-29 23:00:00 7.5 13 Sur 23 Sur 0 852.4 0.3 40
2019-03-29 22:00:00 7.5 12 Sur 21 Sur 0 852.5 0.6 38
2019-03-29 21:00:00 5 5 Sudeste 15 Sudoeste 0 852.4 0.7 72
2019-03-29 20:00:00 4.9 6 Noroeste 18 Oeste 0 852.1 0.5 76
2019-03-29 19:00:00 7.9 15 Oeste 23 Oeste 0 851.9 -0.1 70
2019-03-29 18:00:00 9.9 13 Oeste 20 Oeste 0 851.7 -0.8 54
2019-03-29 17:00:00 12.2 10 Sur 23 Sudoeste 0 851.6 -1.2 26
2019-03-29 16:00:00 12.3 7 Sur 21 Sur 0 852 -1.2 29
2019-03-29 15:00:00 13.6 5 Sudoeste 24 Sudeste 0 852.5 -1.1 27
2019-03-29 14:00:00 12.4 7 Sur 18 Sudeste 0 852.8 -1 28
2019-03-29 13:00:00 11.7 8 Sur 19 Sudeste 0 853.2 -0.8 31
2019-03-29 12:00:00 10.4 10 Sudeste 24 Este 0 853.6 -0.5 32
2019-03-29 11:00:00 9.2 14 Este 20 Este 0 853.8 -0.5 37
2019-03-29 10:00:00 8.5 10 Este 15 Este 0 854 -0.5 38
2019-03-29 09:00:00 5.9 4 Este 10 Este 0 854.1 -0.5 42
2019-03-29 08:00:00 1.2 4 Este 9 Sudeste 0 854.3 -0.4 57
2019-03-29 07:00:00 -1.3 3 Sudeste 8 Sur 0 854.5 -0.5 65
2019-03-29 06:00:00 -0.9 3 Oeste 8 Noroeste 0 854.6 -0.8 62
2019-03-29 05:00:00 -1.3 3 Oeste 6 Noroeste 0 854.7 -0.8 66
2019-03-29 04:00:00 -0.8 5 Noroeste 8 Oeste 0 855 -1.1 64
2019-03-29 03:00:00 0.9 2 Sur 18 Sur 0 855.4 -1 57
2019-03-29 02:00:00 1.5 6 Sudoeste 15 Sur 0 855.5 -1.4 55
2019-03-29 01:00:00 1 3 Oeste 15 Sur 0 856.1 -0.9 59
2019-03-29 00:00:00 1.8 3 Sur 14 Sudeste 0 856.4 -0.7 57
2019-03-28 23:00:00 4.6 9 Sudeste 19 Este 0 856.9 0 45
2019-03-28 22:00:00 5.1 10 Sudeste 26 Sudeste 0 857 0.3 45
2019-03-28 21:00:00 2.6 4 Oeste 10 Noroeste 0 857.1 0.4 74
2019-03-28 20:00:00 4.7 3 Noroeste 14 Oeste 0 856.9 0 70
2019-03-28 19:00:00 8.2 12 Oeste 19 Oeste 0 856.7 -0.6 60
2019-03-28 18:00:00 9.5 13 Oeste 20 Oeste 0 856.7 -0.8 55
2019-03-28 17:00:00 10.1 14 Oeste 21 Oeste 0 856.9 -0.9 50
2019-03-28 16:00:00 10.4 15 Oeste 25 Oeste 0 857.3 -0.8 47
2019-03-28 15:00:00 10.2 18 Oeste 24 Noroeste 0 857.5 -0.9 43
2019-03-28 14:00:00 10.6 18 Oeste 27 Oeste 0 857.8 -0.9 38
2019-03-28 13:00:00 12.1 14 Este 32 Este 0 858.1 -0.5 22
2019-03-28 12:00:00 11.3 21 Este 35 Este 0 858.4 -0.2 22
2019-03-28 11:00:00 10.2 15 Este 29 Este 0 858.7 0.2 24
2019-03-28 10:00:00 8.1 12 Sudeste 20 Sudeste 0 858.6 0.4 30
2019-03-28 09:00:00 5.5 2 Este 8 Oeste 0 858.6 0.5 50
2019-03-28 08:00:00 -0.2 7 Noroeste 10 Oeste 0 858.5 0.5 60
2019-03-28 07:00:00 -0.6 5 Oeste 10 Noroeste 0 858.2 0.2 59
2019-03-28 06:00:00 -0.4 6 Oeste 10 Oeste 0 858.1 0 58
2019-03-28 05:00:00 -0.5 6 Noroeste 12 Noroeste 0 858 -0.5 60
2019-03-28 04:00:00 0.4 10 Noroeste 13 Noroeste 0 858 -0.7 59
2019-03-28 03:00:00 -0.1 8 Noroeste 14 Oeste 0 858.1 -0.5 63
2019-03-28 02:00:00 1.2 10 Oeste 15 Oeste 0 858.5 -0.1 73
2019-03-28 01:00:00 0.4 15 Oeste 18 Oeste 0 858.7 0 73
2019-03-28 00:00:00 1.1 10 Noroeste 14 Oeste 0 858.6 0.1 87
2019-03-27 23:00:00 1.8 6 Oeste 16 Oeste 0 858.6 0.7 88
2019-03-27 22:00:00 2 6 Noroeste 17 Oeste 0 858.7 1.1 87
2019-03-27 21:00:00 2 11 Oeste 19 Oeste 0 858.5 1.2 86
2019-03-27 20:00:00 3.7 17 Noroeste 28 Oeste 0 857.9 0.7 80
2019-03-27 19:00:00 6.1 19 Oeste 28 Oeste 0 857.6 0.4 67
2019-03-27 18:00:00 7.7 21 Oeste 28 Oeste 0 857.3 0 59
2019-03-27 17:00:00 9.1 16 Oeste 26 Noroeste 0 857.2 -0.2 47
2019-03-27 16:00:00 9.3 19 Oeste 26 Oeste 0 857.2 -0.1 43
2019-03-27 15:00:00 9.3 19 Oeste 26 Oeste 0 857.3 0 39
2019-03-27 14:00:00 9.5 15 Oeste 23 Oeste 0 857.4 0.3 36
2019-03-27 13:00:00 9.6 17 Oeste 23 Noroeste 0 857.3 0.7 32
2019-03-27 12:00:00 11.6 14 Este 24 Este 0 857.3 0.7 14
2019-03-27 11:00:00 10.1 18 Este 24 Este 0 857.1 0.7 14
2019-03-27 10:00:00 8.7 17 Sudeste 28 Este 0 856.6 0.7 19
2019-03-27 09:00:00 6.4 14 Sudeste 24 Sudeste 0 856.6 1 16
2019-03-27 08:00:00 4.1 7 Este 21 Sudeste 0 856.4 1.1 22
2019-03-27 07:00:00 3 9 Sudeste 24 Sudeste 0 855.9 0.6 22
2019-03-27 06:00:00 2.9 9 Este 28 Sudeste 0 855.6 0.1 15
2019-03-27 05:00:00 5.6 21 Sudeste 36 Sur 0 855.3 -0.1 10
2019-03-27 04:00:00 4.9 17 Sudeste 30 Sudeste 0 855.3 -0.2 10
2019-03-27 03:00:00 4.9 15 Sudeste 30 Sudeste 0 855.5 0.1 11
2019-03-27 02:00:00 4.7 18 Sur 31 Sudeste 0 855.4 0.2 9
2019-03-27 01:00:00 5.7 23 Sudeste 44 Sudeste 0 855.5 0.5 9
2019-03-27 00:00:00 5.4 30 Sudeste 43 Sudeste 0 855.4 0.5 9